Time,TemperatureF,DewpointF,PressureIn,WindDirection,WindDirectionDegrees,WindSpeedMPH,WindSpeedGustMPH,Humidity,HourlyPrecipIn,Conditions,Clouds,dailyrainin,SoftwareType,DateUTC
2013-03-22 00:32:00,48.0,39.0,29.82,NNW,335,1.0,-999.0,72,-99.99,,,-99.99,,2013-03-22 07:32:00,
2013-03-22 00:42:00,48.0,39.0,29.82,NNW,335,1.0,-999.0,72,-99.99,,,-99.99,,2013-03-22 07:42:00,
2013-03-22 00:52:00,48.0,39.0,29.82,NNW,335,1.0,-999.0,72,-99.99,,,-99.99,,2013-03-22 07:52:00,
2013-03-22 01:02:00,48.0,39.0,29.82,NNW,335,1.0,-999.0,72,-99.99,,,-99.99,,2013-03-22 08:02:00,
2013-03-22 03:33:00,43.0,38.0,29.81,North,360,0.0,-999.0,82,-99.99,,,-99.99,,2013-03-22 10:33:00,
2013-03-22 03:42:00,43.0,38.0,29.81,North,360,0.0,-999.0,82,-99.99,,,-99.99,,2013-03-22 10:42:00,
2013-03-22 03:52:00,43.0,38.0,29.81,North,360,0.0,-999.0,82,-99.99,,,-99.99,,2013-03-22 10:52:00,
2013-03-22 04:02:00,43.0,38.0,29.81,North,360,0.0,-999.0,82,-99.99,,,-99.99,,2013-03-22 11:02:00,
2013-03-22 06:32:00,43.0,25.0,29.80,SW,221,5.0,-999.0,48,-99.99,,,-99.99,,2013-03-22 13:32:00,
2013-03-22 06:42:00,43.0,25.0,29.80,SW,221,5.0,-999.0,48,-99.99,,,-99.99,,2013-03-22 13:42:00,
2013-03-22 06:52:00,43.0,25.0,29.80,SW,221,5.0,-999.0,48,-99.99,,,-99.99,,2013-03-22 13:52:00,
2013-03-22 07:02:00,43.0,25.0,29.80,SW,221,5.0,-999.0,48,-99.99,,,-99.99,,2013-03-22 14:02:00,
2013-03-22 09:32:00,52.0,9.0,29.83,SSW,201,4.0,-999.0,17,-99.99,,,-99.99,,2013-03-22 16:32:00,
2013-03-22 12:33:00,62.0,14.0,29.87,WNW,293,3.0,-999.0,15,-99.99,,,-99.99,,2013-03-22 19:33:00,
2013-03-22 12:43:00,62.0,14.0,29.87,WNW,293,3.0,-999.0,15,-99.99,,,-99.99,,2013-03-22 19:43:00,
2013-03-22 12:52:00,62.0,14.0,29.87,WNW,293,3.0,-999.0,15,-99.99,,,-99.99,,2013-03-22 19:52:00,
2013-03-22 13:01:00,62.0,14.0,29.87,WNW,293,3.0,-999.0,15,-99.99,,,-99.99,,2013-03-22 20:01:00,
2013-03-22 15:32:00,66.0,15.0,29.82,West,279,7.0,-999.0,14,-99.99,,,-99.99,,2013-03-22 22:32:00,
2013-03-22 15:43:00,66.0,15.0,29.82,West,279,7.0,-999.0,14,-99.99,,,-99.99,,2013-03-22 22:43:00,
2013-03-22 15:52:00,66.0,15.0,29.82,West,279,7.0,-999.0,14,-99.99,,,-99.99,,2013-03-22 22:52:00,
2013-03-22 16:02:00,66.0,15.0,29.82,West,279,7.0,-999.0,14,-99.99,,,-99.99,,2013-03-22 23:02:00,
2013-03-22 18:32:00,65.0,29.0,29.80,South,169,3.0,-999.0,26,-99.99,,,-99.99,,2013-03-23 01:32:00,
2013-03-22 18:43:00,65.0,29.0,29.80,South,169,3.0,-999.0,26,-99.99,,,-99.99,,2013-03-23 01:43:00,
2013-03-22 18:52:00,65.0,29.0,29.80,South,169,3.0,-999.0,26,-99.99,,,-99.99,,2013-03-23 01:52:00,
2013-03-22 19:02:00,65.0,29.0,29.80,South,169,3.0,-999.0,26,-99.99,,,-99.99,,2013-03-23 02:02:00,
2013-03-22 21:33:00,51.0,33.0,29.83,WNW,288,1.0,-999.0,50,-99.99,,,-99.99,,2013-03-23 04:33:00,
2013-03-22 21:43:00,51.0,33.0,29.83,WNW,288,1.0,-999.0,50,-99.99,,,-99.99,,2013-03-23 04:43:00,
2013-03-22 21:53:00,51.0,33.0,29.83,WNW,288,1.0,-999.0,50,-99.99,,,-99.99,,2013-03-23 04:53:00,
2013-03-22 22:02:00,51.0,33.0,29.83,WNW,288,1.0,-999.0,50,-99.99,,,-99.99,,2013-03-23 05:02:00,